createdAt,value
2019-05-19T00:00:13.185Z,74.93
2019-05-19T00:00:49.586Z,75.35
2019-05-19T00:01:26.064Z,75.80
2019-05-19T00:02:02.739Z,75.41
2019-05-19T00:02:40.815Z,75.48
2019-05-19T00:03:17.520Z,75.53
2019-05-19T00:03:54.118Z,75.50
2019-05-19T00:04:30.750Z,76.02
2019-05-19T00:05:07.632Z,76.14
2019-05-19T00:05:44.289Z,76.49
2019-05-19T00:06:19.735Z,76.86
2019-05-19T00:06:56.660Z,76.58
2019-05-19T00:07:33.889Z,76.26
2019-05-19T00:08:10.264Z,76.76
2019-05-19T00:08:46.300Z,76.76
2019-05-19T00:09:22.609Z,76.77
2019-05-19T00:09:59.209Z,77.10
2019-05-19T00:10:35.540Z,77.04
2019-05-19T00:11:11.553Z,77.36
2019-05-19T00:11:47.049Z,77.43
2019-05-19T00:12:23.142Z,77.52
2019-05-19T00:13:00.075Z,77.75
2019-05-19T00:13:36.246Z,77.82
2019-05-19T00:14:12.825Z,78.13
2019-05-19T00:14:49.405Z,78.19
2019-05-19T00:15:24.849Z,78.03
2019-05-19T00:16:01.230Z,77.93
2019-05-19T00:16:37.255Z,77.57
2019-05-19T00:17:12.753Z,77.32
2019-05-19T00:17:48.730Z,77.25
2019-05-19T00:18:25.025Z,77.28
2019-05-19T00:19:00.579Z,77.29
2019-05-19T00:19:37.207Z,77.83
2019-05-19T00:20:14.069Z,78.17
2019-05-19T00:20:50.713Z,78.38
2019-05-19T00:21:27.363Z,78.15
2019-05-19T00:22:04.692Z,77.66
2019-05-19T00:22:40.253Z,77.79
2019-05-19T00:23:16.964Z,77.65
2019-05-19T00:23:53.326Z,77.83
2019-05-19T00:24:28.984Z,78.04
2019-05-19T00:25:06.577Z,77.90
2019-05-19T00:25:43.147Z,77.86
2019-05-19T00:26:18.993Z,77.89
2019-05-19T00:26:55.184Z,77.78
2019-05-19T00:27:32.257Z,77.73
2019-05-19T00:28:07.762Z,77.81
2019-05-19T00:28:43.773Z,78.07
2019-05-19T00:29:19.785Z,77.78
2019-05-19T00:29:55.384Z,77.81
2019-05-19T00:30:31.568Z,77.54
2019-05-19T00:31:08.198Z,77.41
2019-05-19T00:31:43.756Z,77.86
2019-05-19T00:32:20.376Z,78.10
2019-05-19T00:32:56.917Z,78.14
2019-05-19T00:33:32.817Z,78.14
2019-05-19T00:34:10.035Z,78.15
2019-05-19T00:34:46.971Z,78.22
2019-05-19T00:35:22.787Z,78.09
2019-05-19T00:35:59.365Z,77.80
2019-05-19T00:36:35.486Z,77.69
2019-05-19T00:37:11.929Z,77.53
2019-05-19T00:37:47.950Z,77.39
2019-05-19T00:38:24.650Z,77.12
2019-05-19T00:39:00.211Z,77.02
2019-05-19T00:39:36.284Z,76.99
2019-05-19T00:40:13.057Z,76.88
2019-05-19T00:40:49.467Z,77.29
2019-05-19T00:41:25.571Z,77.66
2019-05-19T00:42:02.571Z,77.77
2019-05-19T00:42:38.902Z,77.92
2019-05-19T00:43:14.880Z,78.09
2019-05-19T00:43:51.563Z,78.06
2019-05-19T00:44:27.058Z,78.04
2019-05-19T00:45:04.167Z,78.24
2019-05-19T00:45:41.298Z,78.41
2019-05-19T00:46:17.327Z,78.31
2019-05-19T00:46:53.318Z,78.34
2019-05-19T00:47:29.781Z,78.17
2019-05-19T00:48:06.074Z,78.07
2019-05-19T00:48:42.883Z,77.94
2019-05-19T00:49:19.194Z,77.98
2019-05-19T00:49:55.597Z,77.95
2019-05-19T00:50:31.652Z,77.90
2019-05-19T00:51:08.254Z,78.10
2019-05-19T00:51:45.196Z,78.19
2019-05-19T00:52:21.812Z,78.17
2019-05-19T00:52:59.137Z,78.20
2019-05-19T00:53:35.042Z,78.20
2019-05-19T00:54:11.590Z,78.40
2019-05-19T00:54:47.689Z,78.69
2019-05-19T00:55:23.751Z,78.61
2019-05-19T00:56:02.822Z,78.37
2019-05-19T00:56:39.842Z,78.19
2019-05-19T00:57:16.026Z,78.00
2019-05-19T00:57:52.732Z,77.94
2019-05-19T00:58:30.022Z,77.89
2019-05-19T00:59:07.076Z,77.91
2019-05-19T00:59:44.797Z,78.11
2019-05-19T01:00:22.637Z,78.27
2019-05-19T01:00:58.398Z,78.49
2019-05-19T01:01:35.085Z,78.46
2019-05-19T01:02:12.529Z,78.17
2019-05-19T01:02:48.974Z,78.21
2019-05-19T01:03:25.855Z,78.01
2019-05-19T01:04:01.905Z,78.11
2019-05-19T01:04:37.941Z,78.21
2019-05-19T01:05:14.630Z,78.07
2019-05-19T01:05:51.591Z,78.24
2019-05-19T01:06:27.723Z,78.53
2019-05-19T01:07:03.822Z,78.44
2019-05-19T01:07:39.837Z,78.09
2019-05-19T01:08:15.874Z,77.86
2019-05-19T01:08:52.316Z,77.57
2019-05-19T01:09:29.470Z,77.49
2019-05-19T01:10:06.933Z,77.64
2019-05-19T01:10:43.319Z,77.79
2019-05-19T01:11:19.360Z,77.95
2019-05-19T01:11:55.762Z,78.09
2019-05-19T01:12:32.418Z,78.20
2019-05-19T01:13:09.283Z,78.38
2019-05-19T01:13:44.825Z,78.22
2019-05-19T01:14:21.846Z,78.17
2019-05-19T01:14:58.187Z,78.20
2019-05-19T01:15:33.702Z,78.21
2019-05-19T01:16:10.303Z,78.37
2019-05-19T01:16:46.357Z,78.38
2019-05-19T01:17:22.980Z,78.26
2019-05-19T01:17:59.234Z,78.28
2019-05-19T01:18:35.249Z,78.39
2019-05-19T01:19:11.127Z,78.38
2019-05-19T01:19:55.621Z,78.31
2019-05-19T01:20:26.668Z,78.54
2019-05-19T01:21:03.138Z,78.65
2019-05-19T01:21:40.361Z,78.54
2019-05-19T01:22:17.423Z,78.43
2019-05-19T01:22:52.906Z,78.63
2019-05-19T01:23:29.209Z,78.63
2019-05-19T01:24:05.319Z,78.48
2019-05-19T01:24:41.202Z,78.39
2019-05-19T01:25:17.998Z,78.12
2019-05-19T01:25:54.935Z,77.99
2019-05-19T01:26:30.444Z,77.86
2019-05-19T01:27:06.867Z,77.87
2019-05-19T01:27:43.504Z,78.08
2019-05-19T01:28:18.966Z,78.09
2019-05-19T01:28:55.539Z,78.13
2019-05-19T01:29:32.565Z,78.03
2019-05-19T01:30:10.567Z,77.78
2019-05-19T01:30:47.431Z,77.74
2019-05-19T01:31:23.542Z,77.85
2019-05-19T01:32:00.320Z,77.81
2019-05-19T01:32:36.448Z,77.64
2019-05-19T01:33:12.499Z,77.55
2019-05-19T01:33:48.552Z,77.62
2019-05-19T01:34:25.338Z,77.38
2019-05-19T01:35:01.521Z,77.20
2019-05-19T01:35:37.007Z,77.16
2019-05-19T01:36:13.657Z,77.11
2019-05-19T01:36:49.656Z,76.98
2019-05-19T01:37:25.886Z,76.99
2019-05-19T01:38:02.087Z,76.91
2019-05-19T01:38:38.095Z,77.12
2019-05-19T01:39:14.139Z,77.10
2019-05-19T01:39:51.071Z,76.97
2019-05-19T01:40:27.131Z,76.86
2019-05-19T01:41:03.065Z,76.89
2019-05-19T01:41:39.069Z,76.87
2019-05-19T01:42:15.723Z,76.86
2019-05-19T01:42:52.458Z,76.89
2019-05-19T01:43:29.304Z,76.95
2019-05-19T01:44:06.056Z,77.06
2019-05-19T01:44:41.498Z,77.28
2019-05-19T01:45:18.984Z,77.50
2019-05-19T01:45:55.630Z,77.54
2019-05-19T01:46:31.185Z,77.62
2019-05-19T01:47:07.263Z,77.88
2019-05-19T01:47:43.299Z,77.99
2019-05-19T01:48:19.365Z,78.13
2019-05-19T01:48:56.082Z,78.18
2019-05-19T01:49:32.353Z,78.29
2019-05-19T01:50:18.461Z,78.33
2019-05-19T01:50:47.921Z,78.50
2019-05-19T01:51:24.496Z,78.59
2019-05-19T01:52:01.018Z,78.39
2019-05-19T01:52:39.043Z,78.34
2019-05-19T01:53:15.621Z,78.50
2019-05-19T01:53:51.083Z,78.63
2019-05-19T01:54:27.268Z,78.72
2019-05-19T01:55:03.934Z,78.86
2019-05-19T01:55:40.607Z,78.92
2019-05-19T01:56:17.183Z,78.93
2019-05-19T01:56:53.639Z,78.88
2019-05-19T01:57:29.724Z,78.84
2019-05-19T01:58:05.890Z,79.00
2019-05-19T01:58:42.970Z,79.08
2019-05-19T01:59:19.008Z,79.10
2019-05-19T01:59:55.612Z,79.40
2019-05-19T02:00:32.339Z,79.75
2019-05-19T02:01:08.415Z,80.20
2019-05-19T02:01:45.164Z,80.49
2019-05-19T02:02:21.738Z,80.72
2019-05-19T02:02:58.465Z,80.95
2019-05-19T02:03:35.122Z,81.08
2019-05-19T02:04:12.165Z,81.12
2019-05-19T02:04:48.569Z,81.10
2019-05-19T02:05:25.483Z,81.17
2019-05-19T02:06:02.544Z,81.41
2019-05-19T02:06:38.573Z,81.73
2019-05-19T02:07:15.163Z,81.93
2019-05-19T02:07:51.259Z,82.03
2019-05-19T02:08:28.006Z,82.19
2019-05-19T02:09:05.873Z,82.29
2019-05-19T02:09:42.598Z,82.25
2019-05-19T02:10:20.042Z,82.31
2019-05-19T02:10:56.443Z,82.28
2019-05-19T02:11:33.112Z,82.30
2019-05-19T02:12:09.269Z,82.27
2019-05-19T02:12:46.644Z,82.19
2019-05-19T02:13:23.247Z,82.03
2019-05-19T02:14:00.027Z,81.97
2019-05-19T02:14:36.817Z,81.98
2019-05-19T02:15:13.245Z,82.00
2019-05-19T02:15:48.983Z,82.02
2019-05-19T02:16:25.570Z,82.03
2019-05-19T02:17:02.317Z,81.98
2019-05-19T02:17:38.110Z,81.97
2019-05-19T02:18:15.381Z,81.97
2019-05-19T02:18:52.251Z,81.95
2019-05-19T02:19:28.342Z,81.92
2019-05-19T02:20:04.448Z,81.84
2019-05-19T02:20:41.110Z,81.84
2019-05-19T02:21:17.493Z,81.90
2019-05-19T02:21:53.835Z,81.92
2019-05-19T02:22:30.455Z,81.90
2019-05-19T02:23:07.030Z,81.88
2019-05-19T02:23:44.034Z,81.89
2019-05-19T02:24:20.144Z,81.94
2019-05-19T02:24:56.003Z,82.03
2019-05-19T02:25:32.074Z,82.13
2019-05-19T02:26:08.588Z,82.18
2019-05-19T02:26:44.632Z,82.18
2019-05-19T02:27:20.641Z,82.18
2019-05-19T02:27:57.149Z,82.20
2019-05-19T02:28:33.446Z,82.12
2019-05-19T02:29:10.466Z,82.11
2019-05-19T02:29:47.119Z,82.13
2019-05-19T02:30:23.881Z,82.14
2019-05-19T02:31:00.128Z,82.16
2019-05-19T02:31:36.787Z,82.16
2019-05-19T02:32:12.882Z,82.18
2019-05-19T02:32:49.259Z,82.20
2019-05-19T02:33:26.032Z,82.20
2019-05-19T02:34:01.635Z,82.24
2019-05-19T02:34:38.017Z,82.23
2019-05-19T02:35:15.192Z,82.21
2019-05-19T02:35:50.666Z,82.18
2019-05-19T02:36:26.718Z,82.20
2019-05-19T02:37:03.482Z,82.17
2019-05-19T02:37:39.621Z,82.16
2019-05-19T02:38:16.854Z,82.20
2019-05-19T02:38:52.899Z,81.73
2019-05-19T02:39:28.531Z,81.63
2019-05-19T02:40:05.966Z,81.77
2019-05-19T02:40:44.172Z,81.88
2019-05-19T02:41:22.975Z,81.94
2019-05-19T02:42:01.670Z,82.02
2019-05-19T02:42:42.637Z,81.93
2019-05-19T02:43:20.408Z,81.92
2019-05-19T02:43:59.139Z,82.03
2019-05-19T02:44:37.151Z,82.15
2019-05-19T02:45:13.316Z,82.22
2019-05-19T02:45:52.988Z,82.23
2019-05-19T02:46:32.120Z,82.26
2019-05-19T02:47:10.026Z,82.22
2019-05-19T02:47:47.462Z,82.24
2019-05-19T02:48:26.652Z,82.32
2019-05-19T02:49:03.717Z,82.46
2019-05-19T02:49:41.631Z,82.30
2019-05-19T02:50:18.533Z,82.38
2019-05-19T02:50:56.771Z,82.37
2019-05-19T02:51:35.933Z,82.37
2019-05-19T02:52:13.673Z,82.39
2019-05-19T02:52:51.171Z,82.41
2019-05-19T02:53:28.169Z,82.39
2019-05-19T02:54:06.833Z,82.42
2019-05-19T02:54:43.944Z,82.53
2019-05-19T02:55:21.107Z,82.56
2019-05-19T02:55:59.312Z,82.62
2019-05-19T02:56:36.319Z,82.65
2019-05-19T02:57:13.686Z,82.68
2019-05-19T02:57:53.411Z,82.74
2019-05-19T02:58:29.400Z,82.74
2019-05-19T02:59:05.756Z,82.56
2019-05-19T02:59:42.465Z,82.53
2019-05-19T03:00:18.233Z,82.59
2019-05-19T03:00:54.398Z,82.67
2019-05-19T03:01:31.676Z,82.76
2019-05-19T03:02:11.111Z,82.82
2019-05-19T03:02:47.569Z,82.89
2019-05-19T03:03:24.196Z,82.88
2019-05-19T03:04:00.807Z,82.80
2019-05-19T03:04:37.415Z,82.33
2019-05-19T03:05:14.636Z,82.26
2019-05-19T03:05:50.111Z,82.49
2019-05-19T03:06:26.137Z,82.78
2019-05-19T03:07:03.252Z,82.95
2019-05-19T03:07:39.313Z,83.13
2019-05-19T03:08:15.949Z,83.38
2019-05-19T03:08:52.297Z,83.54
2019-05-19T03:09:28.223Z,83.74
2019-05-19T03:10:04.656Z,83.95
2019-05-19T03:10:41.277Z,84.07
2019-05-19T03:11:17.382Z,84.19
2019-05-19T03:11:53.404Z,84.24
2019-05-19T03:12:29.479Z,84.29
2019-05-19T03:13:04.997Z,84.30
2019-05-19T03:13:41.048Z,84.34
2019-05-19T03:14:17.658Z,84.37
2019-05-19T03:14:53.137Z,84.27
2019-05-19T03:15:29.476Z,84.23
2019-05-19T03:16:06.493Z,84.21
2019-05-19T03:16:41.955Z,84.16
2019-05-19T03:17:18.563Z,84.17
2019-05-19T03:17:54.972Z,84.20
2019-05-19T03:18:30.606Z,84.18
2019-05-19T03:19:07.316Z,84.25
2019-05-19T03:19:43.936Z,84.39
2019-05-19T03:20:19.388Z,84.53
2019-05-19T03:21:09.849Z,84.57
2019-05-19T03:21:33.772Z,84.63
2019-05-19T03:22:09.268Z,84.46
2019-05-19T03:22:45.749Z,84.23
2019-05-19T03:23:22.242Z,84.15
2019-05-19T03:23:58.464Z,84.10
2019-05-19T03:24:34.817Z,84.09
2019-05-19T03:25:10.945Z,84.06
2019-05-19T03:25:47.370Z,84.04
2019-05-19T03:26:23.369Z,84.04
2019-05-19T03:27:00.659Z,84.05
2019-05-19T03:27:37.411Z,83.95
2019-05-19T03:28:14.018Z,83.89
2019-05-19T03:28:50.673Z,83.90
2019-05-19T03:29:31.057Z,83.93
2019-05-19T03:30:26.045Z,83.93
2019-05-19T03:31:32.633Z,83.92
2019-05-19T03:32:30.771Z,83.96
2019-05-19T03:33:07.135Z,84.06
2019-05-19T03:33:46.383Z,84.05
2019-05-19T03:34:22.528Z,84.00
2019-05-19T03:34:59.206Z,83.96
2019-05-19T03:35:35.362Z,83.94
2019-05-19T03:36:11.543Z,83.94
2019-05-19T03:36:46.971Z,83.93
2019-05-19T03:37:23.043Z,83.83
2019-05-19T03:37:59.881Z,83.70
2019-05-19T03:38:35.969Z,83.56
2019-05-19T03:39:12.051Z,83.52
2019-05-19T03:39:49.069Z,83.55
2019-05-19T03:40:25.145Z,83.57
2019-05-19T03:41:01.806Z,83.68
2019-05-19T03:41:38.783Z,83.86
2019-05-19T03:42:14.273Z,84.09
2019-05-19T03:42:51.916Z,84.29
2019-05-19T03:43:28.588Z,84.44
2019-05-19T03:44:04.972Z,84.46
2019-05-19T03:44:41.925Z,84.44
2019-05-19T03:45:17.944Z,84.41
2019-05-19T03:45:53.436Z,84.18
2019-05-19T03:46:30.081Z,84.09
2019-05-19T03:47:06.139Z,84.02
2019-05-19T03:47:42.009Z,83.99
2019-05-19T03:48:18.040Z,83.88
2019-05-19T03:48:54.985Z,83.82
2019-05-19T03:49:30.556Z,83.86
2019-05-19T03:50:07.325Z,83.95
2019-05-19T03:50:43.331Z,83.87
2019-05-19T03:51:30.365Z,83.81
2019-05-19T03:51:57.207Z,83.79
2019-05-19T03:52:33.844Z,83.74
2019-05-19T03:53:09.893Z,83.66
2019-05-19T03:53:46.865Z,83.60
2019-05-19T03:54:23.288Z,83.63
2019-05-19T03:54:59.550Z,83.71
2019-05-19T03:55:35.615Z,83.83
2019-05-19T03:56:12.319Z,83.96
2019-05-19T03:56:48.929Z,84.06
2019-05-19T03:57:24.965Z,84.17
2019-05-19T03:58:01.851Z,84.24
2019-05-19T03:58:37.305Z,84.31
2019-05-19T03:59:13.918Z,84.34
2019-05-19T03:59:49.989Z,84.36
2019-05-19T04:00:26.361Z,84.33
2019-05-19T04:01:03.015Z,84.31
2019-05-19T04:01:39.088Z,84.33
2019-05-19T04:02:14.534Z,84.28
2019-05-19T04:02:50.564Z,84.16
2019-05-19T04:03:26.662Z,84.08
2019-05-19T04:04:02.579Z,84.06
2019-05-19T04:04:40.035Z,84.06
2019-05-19T04:05:16.765Z,84.06
2019-05-19T04:05:52.215Z,84.13
2019-05-19T04:06:29.069Z,84.15
2019-05-19T04:07:05.158Z,84.17
2019-05-19T04:07:40.701Z,84.14
2019-05-19T04:08:17.081Z,84.07
2019-05-19T04:08:53.418Z,84.06
2019-05-19T04:09:28.927Z,84.04
2019-05-19T04:10:06.475Z,84.05
2019-05-19T04:10:43.067Z,84.03
2019-05-19T04:11:19.530Z,84.03
2019-05-19T04:11:57.324Z,84.00
2019-05-19T04:12:34.371Z,84.04
2019-05-19T04:13:10.515Z,84.08
2019-05-19T04:13:46.502Z,84.10
2019-05-19T04:14:22.505Z,84.13
2019-05-19T04:14:58.660Z,84.04
2019-05-19T04:15:35.320Z,83.92
2019-05-19T04:16:11.320Z,83.83
2019-05-19T04:16:50.188Z,83.76
2019-05-19T04:17:26.910Z,83.58
2019-05-19T04:18:03.538Z,83.30
2019-05-19T04:18:39.584Z,82.87
2019-05-19T04:19:16.198Z,82.61
2019-05-19T04:19:52.249Z,82.32
2019-05-19T04:20:28.379Z,82.17
2019-05-19T04:21:04.620Z,82.15
2019-05-19T04:21:48.927Z,82.17
2019-05-19T04:22:18.951Z,82.19
2019-05-19T04:22:55.620Z,82.08
2019-05-19T04:23:31.671Z,81.97
2019-05-19T04:24:07.723Z,81.90
2019-05-19T04:24:46.236Z,81.94
2019-05-19T04:25:22.952Z,81.99
2019-05-19T04:26:00.689Z,81.93
2019-05-19T04:26:37.304Z,81.98
2019-05-19T04:27:13.335Z,82.17
2019-05-19T04:27:49.743Z,82.40
2019-05-19T04:28:25.785Z,82.57
2019-05-19T04:29:02.471Z,82.68
2019-05-19T04:29:39.617Z,82.39
2019-05-19T04:30:16.286Z,82.32
2019-05-19T04:30:52.254Z,82.24
2019-05-19T04:31:28.324Z,82.12
2019-05-19T04:32:05.329Z,82.17
2019-05-19T04:32:42.367Z,82.15
2019-05-19T04:33:18.425Z,82.15
2019-05-19T04:33:54.446Z,82.12
2019-05-19T04:34:31.261Z,82.14
2019-05-19T04:35:08.638Z,82.12
2019-05-19T04:35:45.578Z,82.07
2019-05-19T04:36:22.556Z,82.16
2019-05-19T04:36:59.225Z,82.22
2019-05-19T04:37:35.332Z,82.29
2019-05-19T04:38:11.334Z,82.34
2019-05-19T04:38:47.505Z,82.60
2019-05-19T04:39:23.516Z,82.90
2019-05-19T04:40:00.044Z,83.15
2019-05-19T04:40:35.541Z,83.16
2019-05-19T04:41:12.007Z,83.25
2019-05-19T04:41:48.029Z,83.28
2019-05-19T04:42:23.492Z,83.41
2019-05-19T04:42:59.575Z,83.63
2019-05-19T04:43:36.259Z,83.76
2019-05-19T04:44:11.719Z,83.82
2019-05-19T04:44:48.046Z,83.89
2019-05-19T04:45:24.039Z,83.85
2019-05-19T04:46:00.477Z,83.96
2019-05-19T04:46:37.437Z,83.92
2019-05-19T04:47:14.066Z,83.94
2019-05-19T04:47:49.518Z,84.08
2019-05-19T04:48:26.222Z,84.09
2019-05-19T04:49:02.427Z,84.17
2019-05-19T04:49:37.877Z,84.18
2019-05-19T04:50:14.235Z,84.21
2019-05-19T04:50:50.772Z,84.27
2019-05-19T04:51:26.399Z,84.37
2019-05-19T04:52:06.898Z,84.46
2019-05-19T04:52:40.235Z,84.52
2019-05-19T04:53:15.795Z,84.75
2019-05-19T04:53:51.822Z,84.74
2019-05-19T04:54:28.644Z,84.41
2019-05-19T04:55:04.217Z,84.20
2019-05-19T04:55:40.233Z,84.05
2019-05-19T04:56:19.524Z,83.96
2019-05-19T04:56:54.050Z,83.87
2019-05-19T04:57:31.352Z,83.79
2019-05-19T04:58:07.974Z,83.74
2019-05-19T04:58:44.396Z,83.84
2019-05-19T04:59:21.302Z,83.77
2019-05-19T04:59:57.656Z,83.75
2019-05-19T05:00:33.653Z,83.82
2019-05-19T05:01:09.684Z,83.73
2019-05-19T05:01:45.725Z,83.62
2019-05-19T05:02:21.173Z,83.40
2019-05-19T05:02:57.656Z,83.33
2019-05-19T05:03:34.321Z,83.05
2019-05-19T05:04:10.375Z,82.73
2019-05-19T05:04:46.424Z,82.51
2019-05-19T05:05:22.514Z,82.51
2019-05-19T05:05:58.180Z,82.58
2019-05-19T05:06:34.839Z,82.56
2019-05-19T05:07:11.447Z,82.49
2019-05-19T05:07:47.879Z,82.44
2019-05-19T05:08:30.303Z,82.51
2019-05-19T05:09:04.036Z,82.51
2019-05-19T05:09:39.472Z,82.32
2019-05-19T05:10:16.026Z,82.12
2019-05-19T05:10:52.054Z,82.13
2019-05-19T05:11:28.346Z,82.36
2019-05-19T05:12:05.272Z,82.75
2019-05-19T05:12:41.631Z,83.17
2019-05-19T05:13:18.001Z,83.48
2019-05-19T05:13:54.026Z,83.66
2019-05-19T05:14:30.804Z,83.88
2019-05-19T05:15:06.501Z,84.00
2019-05-19T05:15:42.525Z,84.15
2019-05-19T05:16:18.539Z,84.22
2019-05-19T05:16:55.049Z,84.35
2019-05-19T05:17:31.570Z,84.50
2019-05-19T05:18:09.116Z,84.54
2019-05-19T05:18:47.840Z,84.64
2019-05-19T05:19:22.918Z,84.76
2019-05-19T05:19:59.503Z,84.77
2019-05-19T05:20:36.030Z,84.74
2019-05-19T05:21:12.120Z,84.65
2019-05-19T05:21:48.632Z,84.56
2019-05-19T05:22:24.039Z,84.55
2019-05-19T05:23:01.097Z,84.54
2019-05-19T05:23:38.079Z,84.59
2019-05-19T05:24:13.832Z,84.63
2019-05-19T05:24:50.463Z,84.68
2019-05-19T05:25:26.625Z,84.63
2019-05-19T05:26:02.152Z,84.65
2019-05-19T05:26:38.788Z,84.71
2019-05-19T05:27:14.777Z,84.49
2019-05-19T05:27:50.232Z,84.21
2019-05-19T05:28:27.117Z,83.97
2019-05-19T05:29:03.822Z,83.69
2019-05-19T05:29:39.967Z,83.49
2019-05-19T05:30:16.925Z,83.41
2019-05-19T05:30:54.178Z,83.37
2019-05-19T05:31:30.098Z,83.23
2019-05-19T05:32:06.207Z,83.03
2019-05-19T05:32:42.613Z,82.62
2019-05-19T05:33:18.754Z,82.62
2019-05-19T05:33:54.874Z,82.54
2019-05-19T05:34:31.081Z,82.33
2019-05-19T05:35:07.824Z,82.12
2019-05-19T05:35:44.506Z,82.03
2019-05-19T05:36:20.531Z,81.97
2019-05-19T05:36:56.641Z,81.93
2019-05-19T05:37:33.257Z,81.95
2019-05-19T05:38:10.005Z,82.00
2019-05-19T05:38:46.371Z,82.21
2019-05-19T05:39:22.445Z,82.28
2019-05-19T05:39:59.498Z,82.36
2019-05-19T05:40:35.086Z,82.10
2019-05-19T05:41:12.069Z,81.75
2019-05-19T05:41:48.784Z,81.59
2019-05-19T05:42:25.441Z,81.54
2019-05-19T05:43:02.324Z,81.38
2019-05-19T05:43:38.356Z,81.27
2019-05-19T05:44:14.668Z,80.82
2019-05-19T05:44:51.366Z,80.65
2019-05-19T05:45:28.967Z,80.52
2019-05-19T05:46:04.886Z,80.22
2019-05-19T05:46:40.947Z,80.17
2019-05-19T05:47:17.896Z,80.37
2019-05-19T05:47:53.350Z,80.87
2019-05-19T05:48:29.703Z,81.25
2019-05-19T05:49:06.373Z,81.28
2019-05-19T05:49:42.987Z,81.20
2019-05-19T05:50:19.578Z,81.15
2019-05-19T05:50:56.046Z,81.03
2019-05-19T05:51:32.189Z,80.92
2019-05-19T05:52:08.334Z,80.57
2019-05-19T05:52:44.686Z,80.43
2019-05-19T05:53:21.043Z,80.45
2019-05-19T05:53:58.287Z,80.52
2019-05-19T05:54:35.588Z,80.71
2019-05-19T05:55:11.138Z,80.95
2019-05-19T05:55:47.191Z,81.02
2019-05-19T05:56:23.842Z,80.90
2019-05-19T05:56:59.160Z,81.10
2019-05-19T05:57:35.206Z,81.20
2019-05-19T05:58:11.624Z,81.02
2019-05-19T05:58:48.068Z,81.07
2019-05-19T05:59:24.611Z,81.29
2019-05-19T06:00:01.301Z,81.46
2019-05-19T06:00:37.393Z,81.38
2019-05-19T06:01:13.771Z,81.22
2019-05-19T06:01:49.768Z,80.48
2019-05-19T06:02:25.272Z,79.66
2019-05-19T06:03:01.410Z,79.47
2019-05-19T06:03:38.000Z,79.21
2019-05-19T06:04:13.553Z,79.21
2019-05-19T06:04:49.555Z,79.11
2019-05-19T06:05:25.905Z,79.42
2019-05-19T06:06:02.366Z,79.62
2019-05-19T06:06:38.953Z,79.41
2019-05-19T06:07:15.603Z,79.30
2019-05-19T06:07:51.999Z,79.22
2019-05-19T06:08:28.078Z,79.19
2019-05-19T06:09:06.449Z,79.37
2019-05-19T06:09:42.650Z,79.48
2019-05-19T06:10:18.659Z,79.39
2019-05-19T06:10:55.833Z,79.46
2019-05-19T06:11:32.204Z,79.41
2019-05-19T06:12:09.083Z,79.60
2019-05-19T06:12:45.453Z,79.97
2019-05-19T06:13:20.894Z,80.25
2019-05-19T06:13:57.643Z,80.38
2019-05-19T06:14:33.755Z,80.63
2019-05-19T06:15:10.241Z,80.73
2019-05-19T06:15:47.241Z,80.99
2019-05-19T06:16:24.396Z,81.19
2019-05-19T06:17:00.287Z,81.13
2019-05-19T06:17:36.934Z,81.02
2019-05-19T06:18:13.296Z,81.10
2019-05-19T06:18:49.739Z,81.13
2019-05-19T06:19:26.708Z,81.14
2019-05-19T06:20:03.590Z,81.20
2019-05-19T06:20:39.440Z,80.27
2019-05-19T06:21:15.659Z,79.78
2019-05-19T06:21:52.637Z,79.52
2019-05-19T06:22:28.817Z,79.26
2019-05-19T06:23:05.698Z,79.16
2019-05-19T06:23:42.874Z,79.00
2019-05-19T06:24:18.915Z,78.94
2019-05-19T06:24:58.852Z,78.69
2019-05-19T06:25:34.448Z,78.33
2019-05-19T06:26:11.080Z,77.96
2019-05-19T06:26:47.969Z,77.47
2019-05-19T06:27:24.662Z,77.38
2019-05-19T06:28:00.784Z,77.66
2019-05-19T06:28:37.128Z,77.66
2019-05-19T06:29:13.125Z,77.39
2019-05-19T06:29:48.585Z,77.55
2019-05-19T06:30:24.637Z,77.78
2019-05-19T06:31:01.067Z,78.06
2019-05-19T06:31:36.670Z,78.27
2019-05-19T06:32:33.930Z,78.50
2019-05-19T06:33:10.662Z,78.50
2019-05-19T06:33:46.121Z,78.13
2019-05-19T06:34:22.728Z,77.54
2019-05-19T06:34:59.155Z,77.53
2019-05-19T06:35:35.238Z,77.11
2019-05-19T06:36:12.079Z,77.48
2019-05-19T06:36:49.011Z,78.09
2019-05-19T06:37:25.198Z,78.47
2019-05-19T06:38:02.909Z,78.52
2019-05-19T06:38:39.215Z,78.35
2019-05-19T06:39:14.982Z,78.32
2019-05-19T06:39:51.698Z,78.43
2019-05-19T06:40:27.796Z,78.31
2019-05-19T06:41:03.938Z,78.13
2019-05-19T06:41:40.958Z,77.90
2019-05-19T06:42:17.551Z,77.88
2019-05-19T06:42:53.342Z,77.67
2019-05-19T06:43:30.616Z,76.99
2019-05-19T06:44:07.214Z,76.78
2019-05-19T06:44:42.725Z,76.87
2019-05-19T06:45:18.742Z,76.96
2019-05-19T06:45:54.830Z,76.88
2019-05-19T06:46:31.444Z,77.42
2019-05-19T06:47:08.888Z,77.01
2019-05-19T06:47:45.247Z,76.82
2019-05-19T06:48:20.718Z,76.00
2019-05-19T06:48:56.970Z,75.94
2019-05-19T06:49:33.047Z,74.85
2019-05-19T06:50:10.169Z,73.54
2019-05-19T06:50:46.787Z,73.34
2019-05-19T06:51:23.571Z,73.29
2019-05-19T06:51:59.434Z,73.52
2019-05-19T06:52:37.450Z,73.33
2019-05-19T06:53:14.829Z,73.09
2019-05-19T06:53:50.489Z,73.34
2019-05-19T06:54:27.593Z,73.14
2019-05-19T06:55:04.295Z,73.21
2019-05-19T06:55:40.113Z,72.29
2019-05-19T06:56:17.127Z,71.20
2019-05-19T06:56:53.507Z,71.38
2019-05-19T06:57:30.616Z,71.39
2019-05-19T06:58:06.624Z,72.03
2019-05-19T06:58:43.974Z,72.50
2019-05-19T06:59:20.110Z,72.43
2019-05-19T06:59:56.759Z,72.64
2019-05-19T07:00:33.852Z,72.74
2019-05-19T07:01:09.931Z,72.86
2019-05-19T07:01:46.934Z,72.07
2019-05-19T07:02:23.700Z,71.55
2019-05-19T07:02:59.898Z,72.02
2019-05-19T07:03:36.935Z,71.76
2019-05-19T07:04:13.908Z,71.99
2019-05-19T07:04:49.967Z,71.99
2019-05-19T07:05:26.743Z,72.82
2019-05-19T07:06:03.578Z,72.63
2019-05-19T07:06:40.109Z,72.22
2019-05-19T07:07:16.712Z,71.43
2019-05-19T07:07:53.361Z,70.84
2019-05-19T07:08:29.569Z,70.53
2019-05-19T07:09:08.412Z,69.87
2019-05-19T07:09:57.446Z,69.62
2019-05-19T07:10:23.828Z,69.26
2019-05-19T07:11:01.955Z,68.79
2019-05-19T07:11:38.608Z,68.19
2019-05-19T07:12:14.886Z,66.36
2019-05-19T07:12:51.461Z,66.66
2019-05-19T07:13:28.923Z,67.39
2019-05-19T07:14:05.327Z,66.81
2019-05-19T07:14:42.288Z,66.07
2019-05-19T07:15:19.224Z,66.58
2019-05-19T07:15:55.700Z,67.24
2019-05-19T07:16:33.100Z,67.94
2019-05-19T07:17:09.711Z,67.93
2019-05-19T07:17:45.777Z,67.63
2019-05-19T07:18:22.392Z,66.85
2019-05-19T07:18:59.364Z,66.92
2019-05-19T07:19:35.871Z,65.41
2019-05-19T07:20:13.370Z,65.14
2019-05-19T07:20:50.010Z,65.25
2019-05-19T07:21:27.256Z,66.83
2019-05-19T07:22:04.208Z,67.58
2019-05-19T07:22:40.838Z,67.72
2019-05-19T07:23:27.739Z,66.91
2019-05-19T07:23:55.256Z,66.15
2019-05-19T07:24:31.985Z,66.20
2019-05-19T07:25:08.233Z,65.90
2019-05-19T07:25:45.284Z,66.33
2019-05-19T07:26:21.889Z,65.90
2019-05-19T07:26:58.263Z,65.80
2019-05-19T07:27:35.053Z,65.62
2019-05-19T07:28:12.349Z,65.87
2019-05-19T07:28:48.748Z,64.91
2019-05-19T07:29:25.424Z,64.77
2019-05-19T07:30:02.882Z,64.87
2019-05-19T07:30:39.433Z,65.00
2019-05-19T07:31:16.387Z,64.55
2019-05-19T07:31:53.409Z,64.73
2019-05-19T07:32:30.151Z,65.41
2019-05-19T07:33:07.202Z,66.07
2019-05-19T07:33:43.853Z,65.34
2019-05-19T07:34:19.922Z,65.64
2019-05-19T07:34:56.680Z,65.75
2019-05-19T07:35:33.652Z,65.48
2019-05-19T07:36:10.446Z,65.32
2019-05-19T07:36:47.375Z,65.59
2019-05-19T07:37:24.543Z,65.19
2019-05-19T07:38:01.198Z,64.90
2019-05-19T07:38:38.316Z,65.13
2019-05-19T07:39:14.942Z,65.04
2019-05-19T07:39:51.725Z,64.99
2019-05-19T07:40:28.773Z,65.00
2019-05-19T07:41:05.431Z,65.11
2019-05-19T07:41:41.583Z,64.54
2019-05-19T07:42:18.566Z,64.17
2019-05-19T07:42:55.855Z,64.25
2019-05-19T07:43:32.048Z,63.99
2019-05-19T07:44:08.649Z,63.50
2019-05-19T07:44:45.506Z,63.01
2019-05-19T07:45:22.416Z,63.16
2019-05-19T07:45:59.887Z,62.78
2019-05-19T07:46:36.594Z,63.13
2019-05-19T07:47:13.190Z,62.63
2019-05-19T07:47:49.835Z,62.23
2019-05-19T07:48:26.444Z,62.32
2019-05-19T07:49:02.674Z,62.66
2019-05-19T07:49:39.268Z,62.40
2019-05-19T07:50:15.875Z,62.19
2019-05-19T07:50:52.037Z,62.57
2019-05-19T07:51:28.821Z,63.51
2019-05-19T07:52:05.809Z,63.50